Time;durP1;ratioP1;P1;durP2;ratioP2;P2;SDS_P1;SDS_P2;PMS_P1;PMS_P2;Temp;Humidity;BMP_temperature;BMP_pressure;BME280_temperature;BME280_humidity;BME280_pressure;Samples;Min_cycle;Max_cycle;Signal;HPM_P1;HPM_P2
2023/01/21 00:01:17;;;;;;;55.40;30.93;;;1.70;99.90;;;;;;10350960;28;20229;-74
2023/01/21 00:06:18;;;;;;;56.17;32.70;;;1.60;99.90;;;;;;10346759;28;20213;-74
2023/01/21 00:11:18;;;;;;;49.50;29.67;;;1.70;99.90;;;;;;10338301;28;20221;-73
2023/01/21 00:16:25;;;;;;;44.53;29.83;;;1.70;99.90;;;;;;10349023;28;20228;-76
2023/01/21 00:21:25;;;;;;;44.70;29.93;;;1.60;99.90;;;;;;10344301;28;20217;-76
2023/01/21 00:26:26;;;;;;;45.80;27.50;;;1.60;99.90;;;;;;10360882;28;20214;-71
2023/01/21 00:31:26;;;;;;;40.10;27.57;;;1.60;99.90;;;;;;10363473;28;20568;-72
2023/01/21 00:36:28;;;;;;;37.67;23.90;;;1.60;99.90;;;;;;10338478;28;20626;-70
2023/01/21 00:41:29;;;;;;;30.17;22.87;;;1.70;99.90;;;;;;10349082;28;20221;-72
2023/01/21 00:46:30;;;;;;;33.77;23.27;;;1.70;99.90;;;;;;10358766;28;20265;-73
2023/01/21 00:51:33;;;;;;;30.57;22.37;;;1.80;99.90;;;;;;10360255;28;20221;-73
2023/01/21 00:56:34;;;;;;;35.50;23.27;;;1.80;99.90;;;;;;10367534;28;20217;-73
2023/01/21 01:01:37;;;;;;;30.30;21.83;;;1.80;99.90;;;;;;10347427;28;20221;-74
2023/01/21 01:06:37;;;;;;;34.13;23.00;;;1.70;99.90;;;;;;10346468;28;20229;-74
2023/01/21 01:11:41;;;;;;;31.20;21.97;;;1.80;99.90;;;;;;10368855;28;20221;-74
2023/01/21 01:16:41;;;;;;;29.43;21.50;;;1.80;99.90;;;;;;10338929;28;20237;-74
2023/01/21 01:21:42;;;;;;;31.17;21.47;;;1.80;99.90;;;;;;10362851;28;20225;-74
2023/01/21 01:26:43;;;;;;;29.60;21.87;;;1.80;99.90;;;;;;10352864;28;20224;-73
2023/01/21 01:31:43;;;;;;;31.10;21.50;;;1.80;99.90;;;;;;10358063;28;20602;-74
2023/01/21 01:36:44;;;;;;;32.80;21.80;;;1.80;99.90;;;;;;10357952;28;20254;-74
2023/01/21 01:41:44;;;;;;;29.90;22.37;;;1.90;99.90;;;;;;10364198;28;20225;-72
2023/01/21 01:46:45;;;;;;;33.13;22.37;;;1.90;99.90;;;;;;10357333;28;20616;-71
2023/01/21 01:51:59;;;;;;;30.83;22.13;;;1.80;99.90;;;;;;10362234;28;20252;-73
2023/01/21 01:57:04;;;;;;;31.47;21.23;;;1.80;99.90;;;;;;10331182;28;20712;-75
2023/01/21 02:02:07;;;;;;;33.70;22.47;;;1.90;99.90;;;;;;10347581;28;20231;-71
2023/01/21 02:07:08;;;;;;;30.77;21.40;;;1.90;99.90;;;;;;10358897;28;20279;-69
2023/01/21 02:12:08;;;;;;;30.83;21.20;;;1.90;99.90;;;;;;10360307;28;20327;-70
2023/01/21 02:17:19;;;;;;;31.57;20.53;;;1.80;99.90;;;;;;10355626;28;20279;-72
2023/01/21 02:22:28;;;;;;;30.23;20.33;;;1.80;99.90;;;;;;10361533;28;20264;-73
2023/01/21 02:27:51;;;;;;;30.10;20.30;;;1.70;99.90;;;;;;10333668;28;20210;-71
2023/01/21 02:33:08;;;;;;;31.77;21.67;;;1.80;99.90;;;;;;10363651;28;20236;-71
2023/01/21 02:38:24;;;;;;;28.47;20.27;;;1.70;99.90;;;;;;10352252;28;20697;-71
2023/01/21 02:43:46;;;;;;;28.37;18.50;;;1.70;99.90;;;;;;10357582;28;20232;-70
2023/01/21 02:49:04;;;;;;;27.83;19.00;;;1.70;99.90;;;;;;10358682;28;20224;-69
2023/01/21 02:54:38;;;;;;;22.73;16.77;;;1.60;99.90;;;;;;10344150;28;20232;-69
2023/01/21 02:59:43;;;;;;;25.87;17.43;;;1.60;99.90;;;;;;10335558;28;20733;-69
2023/01/21 03:05:11;;;;;;;26.77;17.67;;;1.40;99.90;;;;;;10359830;28;20236;-69
2023/01/21 03:10:21;;;;;;;25.93;17.27;;;1.30;99.90;;;;;;10360730;28;20224;-70
2023/01/21 03:21:18;;;;;;;25.10;17.50;;;1.10;99.90;;;;;;10359018;28;20308;-70
2023/01/21 03:26:25;;;;;;;28.93;18.40;;;1.00;99.90;;;;;;10360676;28;20230;-71
2023/01/21 03:31:32;;;;;;;28.57;17.73;;;0.90;99.90;;;;;;10355141;28;20220;-69
2023/01/21 03:36:48;;;;;;;26.73;17.60;;;0.80;99.90;;;;;;10362699;28;20247;-70
2023/01/21 03:41:49;;;;;;;29.53;18.23;;;0.70;99.90;;;;;;10328411;28;20234;-69
2023/01/21 03:47:20;;;;;;;27.77;18.47;;;0.60;99.90;;;;;;10350319;28;20652;-69
2023/01/21 03:52:22;;;;;;;32.70;19.60;;;0.50;99.90;;;;;;10340290;28;20715;-69
2023/01/21 03:57:23;;;;;;;27.93;18.93;;;0.40;99.90;;;;;;10363755;28;20251;-70
2023/01/21 04:02:24;;;;;;;25.93;18.13;;;0.30;99.90;;;;;;10345047;28;20224;-70
2023/01/21 04:07:24;;;;;;;28.90;17.87;;;0.20;99.90;;;;;;10341283;28;20217;-71
2023/01/21 04:12:25;;;;;;;25.53;17.10;;;0.10;99.90;;;;;;10354023;28;20685;-69
2023/01/21 04:17:27;;;;;;;23.37;16.50;;;0.00;99.90;;;;;;10366113;28;20351;-69
2023/01/21 04:22:27;;;;;;;23.20;15.97;;;-0.10;99.90;;;;;;10365904;28;20231;-70
2023/01/21 04:27:28;;;;;;;22.57;14.30;;;-0.10;99.90;;;;;;10350154;28;20592;-70
2023/01/21 04:32:28;;;;;;;21.07;13.30;;;-0.10;99.90;;;;;;10344911;28;20317;-70
2023/01/21 04:37:29;;;;;;;22.97;13.60;;;-0.20;99.90;;;;;;10365078;28;20243;-70
2023/01/21 04:42:29;;;;;;;20.97;13.73;;;-0.30;99.90;;;;;;10370080;28;20599;-69
2023/01/21 04:47:30;;;;;;;21.80;14.03;;;-0.30;99.90;;;;;;10363275;28;20524;-69
2023/01/21 04:52:30;;;;;;;21.40;13.57;;;-0.40;99.90;;;;;;10366880;28;20218;-69
2023/01/21 04:57:31;;;;;;;19.60;13.17;;;-0.40;99.90;;;;;;10367334;28;20237;-69
2023/01/21 05:02:33;;;;;;;19.77;14.17;;;-0.40;99.90;;;;;;10351461;28;20846;-70
2023/01/21 05:07:33;;;;;;;16.47;12.13;;;-0.50;99.90;;;;;;10351464;28;20222;-68
2023/01/21 05:12:34;;;;;;;18.03;12.70;;;-0.50;99.90;;;;;;10362024;28;20229;-69
2023/01/21 05:17:34;;;;;;;19.77;13.10;;;-0.50;99.90;;;;;;10361097;28;20223;-71
2023/01/21 05:22:38;;;;;;;18.83;13.60;;;-0.60;99.90;;;;;;10357312;28;20586;-70
2023/01/21 05:27:39;;;;;;;19.10;13.60;;;-0.70;99.90;;;;;;10353058;28;20306;-71
2023/01/21 05:32:40;;;;;;;19.70;13.47;;;-0.70;99.90;;;;;;10351547;28;20251;-70
2023/01/21 05:37:40;;;;;;;17.50;12.43;;;-0.80;99.90;;;;;;10360159;28;20225;-69
2023/01/21 05:42:42;;;;;;;19.40;13.30;;;-0.90;99.90;;;;;;10361268;28;20236;-71
2023/01/21 05:47:42;;;;;;;19.87;13.70;;;-0.90;99.90;;;;;;10348314;28;20222;-70
2023/01/21 05:52:43;;;;;;;22.43;13.90;;;-0.90;99.90;;;;;;10344377;28;20595;-69
2023/01/21 05:57:43;;;;;;;22.80;15.13;;;-1.00;99.90;;;;;;10337685;28;20225;-68
2023/01/21 06:02:44;;;;;;;25.97;14.50;;;-1.00;99.90;;;;;;10349643;28;20266;-69
2023/01/21 06:07:45;;;;;;;25.57;16.33;;;-1.00;99.90;;;;;;10365050;28;20225;-70
2023/01/21 06:12:48;;;;;;;25.47;15.33;;;-1.00;99.90;;;;;;10364214;28;20679;-70
2023/01/21 06:17:48;;;;;;;26.47;15.97;;;-1.10;99.90;;;;;;10366316;28;20232;-68
2023/01/21 06:22:49;;;;;;;26.47;15.60;;;-1.10;99.90;;;;;;10367743;28;20699;-69
2023/01/21 06:27:50;;;;;;;22.70;14.87;;;-1.20;99.90;;;;;;10345221;28;20595;-69
2023/01/21 06:32:50;;;;;;;24.43;15.53;;;-1.20;99.90;;;;;;10355567;28;20232;-68
2023/01/21 06:37:51;;;;;;;24.37;15.77;;;-1.20;99.90;;;;;;10344452;28;20217;-68
2023/01/21 06:42:53;;;;;;;26.57;15.63;;;-1.30;99.90;;;;;;10355136;28;20699;-69
2023/01/21 06:47:53;;;;;;;26.07;16.23;;;-1.30;99.90;;;;;;10363233;28;20228;-68
2023/01/21 06:52:57;;;;;;;22.30;15.37;;;-1.30;99.90;;;;;;10351541;28;20213;-69
2023/01/21 06:57:57;;;;;;;27.70;16.43;;;-1.40;99.90;;;;;;10356561;28;20220;-70
2023/01/21 07:02:59;;;;;;;27.27;16.93;;;-1.40;99.90;;;;;;10358976;28;20699;-70
2023/01/21 07:07:59;;;;;;;28.83;17.47;;;-1.40;99.90;;;;;;10365635;28;20232;-69
2023/01/21 07:13:00;;;;;;;29.33;17.93;;;-1.40;99.90;;;;;;10352403;28;20217;-70
2023/01/21 07:18:00;;;;;;;27.47;17.00;;;-1.40;99.90;;;;;;10341122;28;20633;-70
2023/01/21 07:23:01;;;;;;;30.43;18.57;;;-1.40;99.90;;;;;;10344934;28;20225;-69
2023/01/21 07:28:02;;;;;;;32.57;18.93;;;-1.40;99.90;;;;;;10357066;28;20232;-69
2023/01/21 07:33:07;;;;;;;32.00;19.07;;;-1.30;99.90;;;;;;10366744;28;20227;-71
2023/01/21 07:38:07;;;;;;;32.13;18.80;;;-1.30;99.90;;;;;;10359435;28;20213;-72
2023/01/21 07:43:11;;;;;;;33.37;17.80;;;-1.30;99.90;;;;;;10346494;28;20237;-72
2023/01/21 07:48:12;;;;;;;31.73;18.77;;;-1.20;99.90;;;;;;10363220;28;20224;-73
2023/01/21 07:53:14;;;;;;;31.97;18.50;;;-1.10;99.90;;;;;;10343980;28;20631;-73
2023/01/21 07:58:14;;;;;;;29.67;17.87;;;-1.00;99.90;;;;;;10353363;28;20240;-71
2023/01/21 08:03:18;;;;;;;33.53;19.13;;;-0.80;99.90;;;;;;10359321;28;20237;-71
2023/01/21 08:08:19;;;;;;;27.70;17.60;;;-0.70;99.90;;;;;;10343666;28;20233;-72
2023/01/21 08:13:21;;;;;;;30.53;18.23;;;-0.50;99.90;;;;;;10337784;28;20229;-71
2023/01/21 08:18:23;;;;;;;27.43;17.03;;;-0.30;99.90;;;;;;10347527;28;20665;-73
2023/01/21 08:23:25;;;;;;;31.90;18.40;;;-0.20;99.90;;;;;;10357520;28;20237;-70
2023/01/21 08:28:26;;;;;;;29.33;17.73;;;-0.10;99.90;;;;;;10356733;28;20252;-68
2023/01/21 08:33:26;;;;;;;26.17;17.10;;;0.00;99.90;;;;;;10331048;28;20325;-71
2023/01/21 08:38:27;;;;;;;27.17;16.97;;;0.10;99.90;;;;;;10331755;28;20660;-73
2023/01/21 08:43:28;;;;;;;26.90;16.90;;;0.30;99.90;;;;;;10340884;28;20274;-71
2023/01/21 08:48:29;;;;;;;27.60;17.60;;;0.50;99.90;;;;;;10322644;28;20226;-71
2023/01/21 08:53:29;;;;;;;28.47;17.70;;;0.70;99.90;;;;;;10328560;28;20230;-72
2023/01/21 08:58:31;;;;;;;26.40;17.20;;;1.10;99.90;;;;;;10345068;28;20222;-70
2023/01/21 09:03:31;;;;;;;25.47;16.77;;;1.40;99.90;;;;;;10354198;28;20257;-71
2023/01/21 09:08:32;;;;;;;23.40;16.40;;;1.70;99.90;;;;;;10332259;28;20391;-74
2023/01/21 09:13:37;;;;;;;27.20;16.63;;;1.90;99.90;;;;;;10339575;28;20705;-73
2023/01/21 09:18:38;;;;;;;23.10;16.23;;;2.00;99.90;;;;;;10357597;28;20249;-73
2023/01/21 09:23:39;;;;;;;23.23;15.43;;;1.90;99.90;;;;;;10335574;28;20347;-66
2023/01/21 09:28:42;;;;;;;21.23;14.37;;;2.10;99.90;;;;;;10341809;28;20882;-70
2023/01/21 09:33:46;;;;;;;21.77;14.47;;;2.60;99.90;;;;;;10354444;28;20631;-67
2023/01/21 09:38:48;;;;;;;23.63;14.27;;;3.10;99.90;;;;;;10352667;28;20707;-65
2023/01/21 09:43:58;;;;;;;20.80;14.37;;;3.50;99.90;;;;;;10346913;28;20224;-64
2023/01/21 09:49:02;;;;;;;21.50;13.97;;;3.70;99.90;;;;;;10347364;28;20214;-65
2023/01/21 09:54:09;;;;;;;22.70;12.73;;;3.30;99.90;;;;;;10349540;28;20548;-65
2023/01/21 09:59:21;;;;;;;18.60;13.10;;;3.30;99.90;;;;;;10345744;28;20305;-64
2023/01/21 10:04:47;;;;;;;19.30;13.30;;;3.50;99.90;;;;;;10346984;28;20225;-64
2023/01/21 10:10:00;;;;;;;19.07;13.33;;;4.20;99.90;;;;;;10338254;28;20213;-67
2023/01/21 10:15:18;;;;;;;18.67;13.10;;;4.90;99.90;;;;;;10342596;28;20361;-64
2023/01/21 10:20:23;;;;;;;17.90;12.53;;;5.70;99.90;;;;;;10341975;28;20213;-64
2023/01/21 10:25:29;;;;;;;19.00;12.37;;;5.60;99.90;;;;;;10351825;28;20309;-65
2023/01/21 10:30:38;;;;;;;17.23;11.40;;;5.90;99.90;;;;;;10326790;28;20257;-65
2023/01/21 10:35:49;;;;;;;17.50;12.00;;;6.50;99.90;;;;;;10345992;28;20215;-67
2023/01/21 10:41:02;;;;;;;18.83;11.50;;;6.90;99.90;;;;;;10344507;28;21071;-66
2023/01/21 10:46:09;;;;;;;15.67;10.60;;;5.80;99.90;;;;;;10343778;28;20217;-73
2023/01/21 10:51:22;;;;;;;16.43;11.30;;;5.70;99.90;;;;;;10347790;28;20230;-68
2023/01/21 10:56:41;;;;;;;18.77;11.17;;;5.30;99.90;;;;;;10339365;28;20251;-68
2023/01/21 11:01:46;;;;;;;18.17;11.67;;;4.30;99.90;;;;;;10349420;28;20230;-70
2023/01/21 11:07:02;;;;;;;16.77;10.83;;;3.60;99.90;;;;;;10343126;28;20272;-69
2023/01/21 11:12:02;;;;;;;18.77;11.87;;;3.30;99.90;;;;;;10342233;28;20309;-69
2023/01/21 11:17:04;;;;;;;16.67;11.67;;;2.80;99.90;;;;;;10337427;28;20246;-69
2023/01/21 11:22:11;;;;;;;19.53;12.40;;;2.50;99.90;;;;;;10346377;28;20256;-69
2023/01/21 11:27:36;;;;;;;16.47;11.47;;;2.30;99.90;;;;;;10343663;28;20217;-68
2023/01/21 11:32:36;;;;;;;17.90;11.43;;;2.30;99.90;;;;;;10363926;28;20221;-69
2023/01/21 11:37:37;;;;;;;20.53;11.37;;;2.10;99.90;;;;;;10367355;28;20691;-68
2023/01/21 11:42:57;;;;;;;17.60;11.40;;;2.00;99.90;;;;;;10361047;28;20249;-68
2023/01/21 11:47:59;;;;;;;18.53;11.83;;;2.00;99.90;;;;;;10350249;28;20207;-67
2023/01/21 11:53:14;;;;;;;18.03;10.97;;;2.10;99.90;;;;;;10365682;28;20313;-67
2023/01/21 11:58:17;;;;;;;17.60;12.17;;;2.10;99.90;;;;;;10362481;28;20585;-68
2023/01/21 12:03:21;;;;;;;16.60;11.90;;;2.10;99.90;;;;;;10346516;28;20236;-68
2023/01/21 12:08:28;;;;;;;18.07;12.67;;;2.10;99.90;;;;;;10334195;28;20245;-68
2023/01/21 12:14:06;;;;;;;17.03;11.70;;;2.20;99.90;;;;;;10349795;28;20265;-68
2023/01/21 12:19:22;;;;;;;18.67;11.87;;;2.10;99.90;;;;;;10355356;28;20213;-69
2023/01/21 12:24:41;;;;;;;20.07;11.80;;;2.10;99.90;;;;;;10358484;28;20225;-68
2023/01/21 12:30:06;;;;;;;16.47;10.57;;;2.10;99.90;;;;;;10354830;28;20308;-69
2023/01/21 12:35:22;;;;;;;15.87;11.23;;;2.20;99.90;;;;;;10359480;28;20217;-69
2023/01/21 12:40:32;;;;;;;14.90;10.33;;;2.30;99.90;;;;;;10355429;28;20201;-69
2023/01/21 12:45:40;;;;;;;17.40;11.70;;;2.40;99.90;;;;;;10371981;28;20246;-70
2023/01/21 12:50:51;;;;;;;15.50;10.37;;;2.50;99.90;;;;;;10351064;28;20230;-69
2023/01/21 12:56:19;;;;;;;16.20;10.63;;;2.50;99.90;;;;;;10337330;28;20286;-68
2023/01/21 13:01:47;;;;;;;11.57;8.27;;;2.50;99.90;;;;;;10360066;28;20252;-69
2023/01/21 13:07:10;;;;;;;16.43;12.37;;;2.40;99.90;;;;;;10372049;28;20758;-70
2023/01/21 13:12:29;;;;;;;13.40;9.27;;;2.30;99.90;;;;;;10344812;28;20696;-68
2023/01/21 13:17:36;;;;;;;13.03;9.17;;;2.30;99.90;;;;;;10359304;28;20576;-69
2023/01/21 13:22:46;;;;;;;13.23;8.67;;;2.30;99.90;;;;;;10348691;28;21132;-69
2023/01/21 13:27:59;;;;;;;14.97;8.47;;;2.30;99.90;;;;;;10348179;28;20213;-69
2023/01/21 13:33:15;;;;;;;11.07;7.80;;;2.50;99.90;;;;;;10359605;28;20296;-68
2023/01/21 13:38:30;;;;;;;12.20;8.80;;;2.60;99.90;;;;;;10345195;28;20256;-69
2023/01/21 13:43:33;;;;;;;12.60;8.63;;;2.60;99.90;;;;;;10345317;28;20222;-69
2023/01/21 13:48:53;;;;;;;11.17;7.80;;;2.60;99.90;;;;;;10355910;28;20716;-70
2023/01/21 13:54:10;;;;;;;13.47;8.60;;;2.60;99.90;;;;;;10353438;28;20228;-69
2023/01/21 13:59:33;;;;;;;12.03;7.93;;;2.60;99.90;;;;;;10362372;28;20604;-69
2023/01/21 14:04:47;;;;;;;12.00;8.10;;;2.60;99.90;;;;;;10356321;28;20230;-69
2023/01/21 14:09:55;;;;;;;10.83;7.60;;;2.60;99.90;;;;;;10355831;28;20209;-69
2023/01/21 14:15:10;;;;;;;12.97;8.73;;;2.50;99.90;;;;;;10363680;28;20271;-68
2023/01/21 14:20:10;;;;;;;10.33;7.37;;;2.40;99.90;;;;;;10361498;28;20201;-69
2023/01/21 14:25:49;;;;;;;10.53;7.80;;;2.40;99.90;;;;;;10360157;28;20228;-69
2023/01/21 14:31:08;;;;;;;12.30;8.87;;;2.40;99.90;;;;;;10354456;28;20252;-69
2023/01/21 14:36:19;;;;;;;9.90;7.73;;;2.40;99.90;;;;;;10365525;28;20226;-69
2023/01/21 14:41:19;;;;;;;10.17;7.47;;;2.60;99.90;;;;;;10360080;28;20675;-70
2023/01/21 14:46:33;;;;;;;11.77;7.60;;;2.70;99.90;;;;;;10342516;28;20231;-69
2023/01/21 14:51:47;;;;;;;12.77;7.77;;;2.60;99.90;;;;;;10359500;28;20620;-69
2023/01/21 14:56:53;;;;;;;10.57;7.57;;;2.60;99.90;;;;;;10366064;28;20217;-69
2023/01/21 15:02:02;;;;;;;10.60;7.83;;;2.50;99.90;;;;;;10342601;28;20640;-69
2023/01/21 15:07:13;;;;;;;12.03;8.13;;;2.30;99.90;;;;;;10345369;28;20221;-69
2023/01/21 15:12:24;;;;;;;9.67;7.10;;;2.30;99.90;;;;;;10358416;28;20237;-68
2023/01/21 15:17:53;;;;;;;12.87;8.10;;;2.20;99.90;;;;;;10337649;28;20227;-68
2023/01/21 15:23:04;;;;;;;10.00;7.23;;;2.10;99.90;;;;;;10359260;28;20225;-69
2023/01/21 15:28:23;;;;;;;11.03;7.80;;;2.10;99.90;;;;;;10358725;28;20217;-69
2023/01/21 15:33:25;;;;;;;12.00;7.87;;;2.10;99.90;;;;;;10352840;28;20688;-70
2023/01/21 15:38:27;;;;;;;11.20;7.77;;;2.10;99.90;;;;;;10364286;28;20231;-70
2023/01/21 15:43:53;;;;;;;11.20;7.73;;;2.10;99.90;;;;;;10356133;28;20229;-69
2023/01/21 15:49:12;;;;;;;12.37;7.70;;;2.10;99.90;;;;;;10360075;28;20276;-68
2023/01/21 15:54:37;;;;;;;12.50;8.17;;;2.00;99.90;;;;;;10355871;28;20233;-69
2023/01/21 16:00:01;;;;;;;11.73;8.00;;;1.90;99.90;;;;;;10364173;28;20228;-69
2023/01/21 16:05:10;;;;;;;12.97;7.83;;;1.80;99.90;;;;;;10344912;28;20653;-70
2023/01/21 16:10:24;;;;;;;13.60;8.47;;;1.80;99.90;;;;;;10352599;28;20446;-69
2023/01/21 16:15:43;;;;;;;10.97;7.03;;;1.80;99.90;;;;;;10354317;28;20278;-71
2023/01/21 16:20:46;;;;;;;9.03;7.00;;;1.80;99.90;;;;;;10362982;28;20729;-70
2023/01/21 16:25:51;;;;;;;11.73;7.50;;;1.80;99.90;;;;;;10357291;28;20236;-69
2023/01/21 16:30:55;;;;;;;12.10;7.23;;;1.70;99.90;;;;;;10348765;28;20229;-70
2023/01/21 16:35:59;;;;;;;8.80;6.30;;;1.60;99.90;;;;;;10357327;28;20221;-69
2023/01/21 16:41:08;;;;;;;10.47;7.00;;;1.70;99.90;;;;;;10350397;28;20241;-70
2023/01/21 16:46:19;;;;;;;10.63;6.90;;;1.70;99.90;;;;;;10361530;28;20240;-69
2023/01/21 16:51:23;;;;;;;9.73;6.90;;;1.60;99.90;;;;;;10357174;28;20232;-69
2023/01/21 16:56:28;;;;;;;9.67;6.53;;;1.60;99.90;;;;;;10360924;28;20338;-69
2023/01/21 17:01:30;;;;;;;10.20;7.30;;;1.60;99.90;;;;;;10361087;28;20307;-68
2023/01/21 17:06:34;;;;;;;10.60;7.07;;;1.70;99.90;;;;;;10359966;28;20280;-67
2023/01/21 17:11:37;;;;;;;9.57;6.63;;;1.60;99.90;;;;;;10351465;28;20634;-68
2023/01/21 17:16:40;;;;;;;10.57;7.27;;;1.60;99.90;;;;;;10363293;28;20249;-67
2023/01/21 17:21:46;;;;;;;11.13;6.87;;;1.60;99.90;;;;;;10333310;28;20228;-68
2023/01/21 17:26:55;;;;;;;10.67;7.40;;;1.60;99.90;;;;;;10354154;28;20283;-66
2023/01/21 17:32:05;;;;;;;10.50;7.73;;;1.60;99.90;;;;;;10338388;28;20888;-66
2023/01/21 17:37:41;;;;;;;13.13;8.70;;;1.60;99.90;;;;;;10349926;28;20635;-67
2023/01/21 17:42:42;;;;;;;13.17;7.73;;;1.60;99.90;;;;;;10351347;28;20340;-67
2023/01/21 17:47:42;;;;;;;12.47;7.03;;;1.70;99.90;;;;;;10350980;28;20329;-67
2023/01/21 17:52:50;;;;;;;10.77;7.60;;;1.70;99.90;;;;;;10357898;28;20733;-66
2023/01/21 17:57:53;;;;;;;12.17;7.60;;;1.70;99.90;;;;;;10355602;28;20234;-67
2023/01/21 18:02:53;;;;;;;11.50;7.83;;;1.70;99.90;;;;;;10337704;28;20252;-67
2023/01/21 18:07:54;;;;;;;11.27;7.97;;;1.70;99.90;;;;;;10341491;28;20269;-67
2023/01/21 18:12:56;;;;;;;11.33;8.00;;;1.70;99.90;;;;;;10355467;28;20230;-67
2023/01/21 18:18:00;;;;;;;9.50;7.00;;;1.80;99.90;;;;;;10354246;28;20221;-67
2023/01/21 18:23:00;;;;;;;16.80;8.67;;;1.80;99.90;;;;;;10350729;28;20264;-67
2023/01/21 18:28:02;;;;;;;15.97;9.57;;;1.70;99.90;;;;;;10352375;28;20662;-68
2023/01/21 18:33:02;;;;;;;17.50;10.83;;;1.70;99.90;;;;;;10352754;28;20234;-67
2023/01/21 18:38:09;;;;;;;15.73;10.00;;;1.80;99.90;;;;;;10351621;28;20296;-68
2023/01/21 18:43:10;;;;;;;14.33;10.37;;;1.80;99.90;;;;;;10350835;28;20732;-68
2023/01/21 18:48:13;;;;;;;13.43;9.70;;;1.80;99.90;;;;;;10347985;28;20221;-67
2023/01/21 18:53:16;;;;;;;11.33;8.47;;;1.90;99.90;;;;;;10361716;28;20249;-67
2023/01/21 18:58:17;;;;;;;13.87;7.83;;;1.90;99.90;;;;;;10348238;28;20575;-68
2023/01/21 19:03:18;;;;;;;10.07;7.83;;;1.90;99.90;;;;;;10349426;28;20229;-67
2023/01/21 19:08:23;;;;;;;11.20;8.07;;;1.90;99.90;;;;;;10352484;28;20270;-68
2023/01/21 19:13:24;;;;;;;10.93;8.47;;;2.00;99.90;;;;;;10358779;28;20941;-67
2023/01/21 19:18:25;;;;;;;10.67;8.30;;;2.00;99.90;;;;;;10345249;28;20279;-67
2023/01/21 19:23:25;;;;;;;11.03;8.30;;;2.00;99.90;;;;;;10351217;28;20625;-67
2023/01/21 19:28:26;;;;;;;11.67;8.60;;;2.00;99.90;;;;;;10348033;28;20217;-66
2023/01/21 19:33:30;;;;;;;11.37;9.03;;;2.00;99.90;;;;;;10351660;28;20255;-67
2023/01/21 19:38:30;;;;;;;11.70;8.97;;;2.00;99.90;;;;;;10353624;28;20227;-67
2023/01/21 19:43:31;;;;;;;11.77;8.10;;;2.00;99.90;;;;;;10351733;28;20218;-67
2023/01/21 19:48:35;;;;;;;11.40;8.20;;;2.10;99.90;;;;;;10355147;28;20694;-67
2023/01/21 19:53:35;;;;;;;12.87;8.57;;;2.10;99.90;;;;;;10353494;28;20222;-67
2023/01/21 19:58:38;;;;;;;12.67;8.90;;;2.10;99.90;;;;;;10344953;28;20647;-67
2023/01/21 20:03:38;;;;;;;12.90;8.60;;;2.10;99.90;;;;;;10351395;28;20239;-66
2023/01/21 20:08:39;;;;;;;12.77;7.93;;;2.10;99.90;;;;;;10347932;28;20221;-67
2023/01/21 20:13:40;;;;;;;10.57;7.40;;;2.10;99.90;;;;;;10342944;28;20289;-66
2023/01/21 20:18:41;;;;;;;10.20;6.83;;;2.10;99.90;;;;;;10361953;28;20233;-68
2023/01/21 20:23:42;;;;;;;10.40;6.80;;;2.10;99.90;;;;;;10334843;28;20260;-67
2023/01/21 20:28:46;;;;;;;8.80;6.37;;;2.10;99.90;;;;;;10349538;28;20296;-67
2023/01/21 20:33:47;;;;;;;13.80;6.50;;;2.10;99.90;;;;;;10343501;28;20249;-67
2023/01/21 20:38:47;;;;;;;9.40;6.43;;;2.10;99.90;;;;;;10349592;28;20229;-68
2023/01/21 20:43:48;;;;;;;9.20;6.07;;;2.10;99.90;;;;;;10355030;28;20217;-67
2023/01/21 20:48:50;;;;;;;10.00;6.03;;;2.10;99.90;;;;;;10342692;28;20927;-67
2023/01/21 20:53:51;;;;;;;9.87;6.87;;;2.10;99.90;;;;;;10356417;28;20298;-68
2023/01/21 20:58:52;;;;;;;8.50;5.63;;;2.10;99.90;;;;;;10340902;28;20221;-67
2023/01/21 21:03:53;;;;;;;9.87;6.87;;;2.10;99.90;;;;;;10358204;28;20630;-67
2023/01/21 21:08:54;;;;;;;10.93;6.40;;;2.20;99.90;;;;;;10348509;28;20213;-67
2023/01/21 21:13:55;;;;;;;9.27;5.67;;;2.20;99.90;;;;;;10358436;28;20221;-67
2023/01/21 21:18:57;;;;;;;9.10;6.33;;;2.20;99.90;;;;;;10350284;28;20275;-68
2023/01/21 21:23:57;;;;;;;9.17;6.27;;;2.20;99.90;;;;;;10355765;28;20274;-67
2023/01/21 21:28:58;;;;;;;8.97;6.40;;;2.20;99.90;;;;;;10344740;28;20488;-67
2023/01/21 21:34:01;;;;;;;9.20;6.50;;;2.30;99.90;;;;;;10355655;28;20343;-67
2023/01/21 21:39:02;;;;;;;10.47;7.17;;;2.30;99.90;;;;;;10355347;28;20218;-68
2023/01/21 21:44:09;;;;;;;11.07;7.90;;;2.20;99.90;;;;;;10353182;28;20221;-68
2023/01/21 21:49:11;;;;;;;10.60;7.70;;;2.00;99.90;;;;;;10348914;28;20308;-67
2023/01/21 21:54:12;;;;;;;11.33;8.43;;;1.90;99.90;;;;;;10355755;28;20216;-68
2023/01/21 21:59:13;;;;;;;12.03;8.47;;;1.80;99.90;;;;;;10354845;28;20234;-67
2023/01/21 22:04:14;;;;;;;13.53;8.37;;;1.80;99.90;;;;;;10351689;28;20237;-67
2023/01/21 22:09:15;;;;;;;15.00;9.23;;;1.80;99.90;;;;;;10355032;28;20220;-67
2023/01/21 22:14:16;;;;;;;14.60;10.07;;;1.80;99.90;;;;;;10352951;28;20217;-67
2023/01/21 22:19:17;;;;;;;15.93;9.23;;;1.70;99.90;;;;;;10358057;28;20241;-67
2023/01/21 22:24:18;;;;;;;15.83;10.83;;;1.60;99.90;;;;;;10363139;28;20674;-68
2023/01/21 22:29:18;;;;;;;16.63;10.67;;;1.60;99.90;;;;;;10348999;28;20217;-67
2023/01/21 22:34:21;;;;;;;17.23;11.23;;;1.60;99.90;;;;;;10353399;28;20217;-67
2023/01/21 22:39:22;;;;;;;17.03;10.83;;;1.60;99.90;;;;;;10343452;28;20625;-67
2023/01/21 22:44:23;;;;;;;23.57;13.20;;;1.70;99.90;;;;;;10349078;28;20313;-68
2023/01/21 22:49:23;;;;;;;22.27;12.50;;;1.70;99.90;;;;;;10356457;28;20210;-67
2023/01/21 22:54:24;;;;;;;24.47;13.97;;;1.70;99.90;;;;;;10359358;28;20247;-67
2023/01/21 22:59:24;;;;;;;21.57;12.27;;;1.70;99.90;;;;;;10352210;28;20640;-66
2023/01/21 23:04:25;;;;;;;21.33;12.90;;;1.70;99.90;;;;;;10348465;28;20225;-67
2023/01/21 23:09:25;;;;;;;22.70;13.60;;;1.70;99.90;;;;;;10359884;28;20209;-67
2023/01/21 23:14:26;;;;;;;20.83;13.17;;;1.50;99.90;;;;;;10347427;28;20264;-67
2023/01/21 23:19:26;;;;;;;23.33;13.80;;;1.50;99.90;;;;;;10357334;28;20214;-67
2023/01/21 23:24:27;;;;;;;23.10;13.73;;;1.40;99.90;;;;;;10351522;28;20248;-67
2023/01/21 23:29:27;;;;;;;24.83;14.77;;;1.40;99.90;;;;;;10354510;28;20318;-67
2023/01/21 23:34:28;;;;;;;28.93;14.73;;;1.30;99.90;;;;;;10352687;28;20643;-66
2023/01/21 23:39:28;;;;;;;26.03;15.00;;;1.40;99.90;;;;;;10346829;28;20245;-67
2023/01/21 23:44:29;;;;;;;22.93;14.70;;;1.30;99.90;;;;;;10348265;28;20641;-66
2023/01/21 23:49:30;;;;;;;24.43;15.07;;;1.30;99.90;;;;;;10353965;28;20317;-67
2023/01/21 23:54:33;;;;;;;26.00;14.90;;;1.40;99.90;;;;;;10347699;28;20583;-67
2023/01/21 23:59:35;;;;;;;24.83;14.97;;;1.50;99.90;;;;;;10345375;28;20226;-67
